Time;durP1;ratioP1;P1;durP2;ratioP2;P2;SDS_P1;SDS_P2;PMS_P1;PMS_P2;Temp;Humidity;BMP_temperature;BMP_pressure;BME280_temperature;BME280_humidity;BME280_pressure;Samples;Min_cycle;Max_cycle;Signal;HPM_P1;HPM_P2
2023/08/31 00:01:41;;;;;;;9.30;7.10;;;;;;;;;;483135;245;28289;-74
2023/08/31 00:03:44;;;;;;;8.83;6.97;;;;;;;;;;483117;246;27094;-73
2023/08/31 00:05:44;;;;;;;9.87;7.27;;;12.50;99.90;;;;;;483065;246;26958;-73
2023/08/31 00:07:46;;;;;;;11.83;8.17;;;12.50;99.90;;;;;;483118;246;28551;-74
2023/08/31 00:09:47;;;;;;;8.80;6.90;;;12.60;99.90;;;;;;483173;245;28423;-74
2023/08/31 00:11:48;;;;;;;9.20;7.40;;;12.50;99.90;;;;;;483188;245;28825;-75
2023/08/31 00:13:52;;;;;;;8.40;7.00;;;;;;;;;;483087;246;30795;-76
2023/08/31 00:15:52;;;;;;;9.30;7.70;;;12.60;99.90;;;;;;483049;246;26821;-75
2023/08/31 00:17:53;;;;;;;9.93;7.27;;;12.70;99.90;;;;;;483125;246;28339;-74
2023/08/31 00:19:54;;;;;;;7.43;6.50;;;12.70;99.90;;;;;;483133;246;28340;-74
2023/08/31 00:21:57;;;;;;;8.00;7.20;;;;;;;;;;483123;246;28352;-76
2023/08/31 00:23:58;;;;;;;11.57;9.30;;;12.70;99.90;;;;;;483137;246;26478;-73
2023/08/31 00:25:59;;;;;;;13.53;8.60;;;12.80;99.90;;;;;;483120;246;28171;-74
2023/08/31 00:28:04;;;;;;;9.93;8.37;;;12.80;99.90;;;;;;483150;246;28307;-78
2023/08/31 00:30:03;;;;;;;10.47;8.00;;;12.80;99.90;;;;;;482916;246;28454;-74
2023/08/31 00:32:05;;;;;;;9.83;8.53;;;;;;;;;;483241;245;28447;-74
2023/08/31 00:34:06;;;;;;;10.70;9.13;;;12.80;99.90;;;;;;482783;246;26583;-75
2023/08/31 00:36:08;;;;;;;10.50;7.70;;;12.80;99.90;;;;;;483149;246;28090;-75
2023/08/31 00:38:09;;;;;;;10.73;8.97;;;12.80;99.90;;;;;;483160;246;28228;-73
2023/08/31 00:40:13;;;;;;;9.30;7.50;;;12.70;99.90;;;;;;483154;246;28388;-73
2023/08/31 00:42:11;;;;;;;9.93;8.57;;;12.60;99.90;;;;;;482962;246;28357;-73
2023/08/31 00:44:13;;;;;;;13.80;8.43;;;12.60;99.90;;;;;;483089;246;28653;-74
2023/08/31 00:46:14;;;;;;;11.23;8.10;;;12.60;99.90;;;;;;483113;246;28677;-74
2023/08/31 00:48:19;;;;;;;7.83;7.00;;;;;;;;;;483116;246;28368;-73
2023/08/31 00:50:21;;;;;;;12.30;9.50;;;12.40;99.90;;;;;;483128;246;27087;-73
2023/08/31 00:52:24;;;;;;;10.57;7.87;;;12.40;99.90;;;;;;483110;245;28371;-73
2023/08/31 00:54:24;;;;;;;10.77;8.53;;;12.30;99.90;;;;;;483168;245;28098;-74
2023/08/31 00:56:27;;;;;;;9.20;7.93;;;;;;;;;;483108;246;28447;-74
2023/08/31 00:58:28;;;;;;;11.33;8.73;;;12.20;99.90;;;;;;483104;246;27189;-73
2023/08/31 01:00:29;;;;;;;8.60;7.70;;;12.20;99.90;;;;;;483153;246;28440;-74
2023/08/31 01:02:30;;;;;;;9.70;8.07;;;12.10;99.90;;;;;;483104;246;28450;-74
2023/08/31 01:04:31;;;;;;;8.90;7.70;;;12.10;99.90;;;;;;483102;246;28348;-74
2023/08/31 01:06:33;;;;;;;9.00;7.33;;;12.10;99.90;;;;;;483119;246;28381;-74
2023/08/31 01:08:34;;;;;;;13.27;7.83;;;12.10;99.90;;;;;;483115;246;28572;-74
2023/08/31 01:10:35;;;;;;;8.37;6.73;;;12.10;99.90;;;;;;483111;246;28891;-73
2023/08/31 01:12:36;;;;;;;10.30;7.47;;;12.00;99.90;;;;;;483108;246;28373;-73
2023/08/31 01:14:38;;;;;;;10.50;6.53;;;12.00;99.90;;;;;;483095;246;29307;-74
2023/08/31 01:16:39;;;;;;;7.40;6.50;;;11.90;99.90;;;;;;483105;246;29411;-74
2023/08/31 01:18:41;;;;;;;11.30;6.80;;;11.90;99.90;;;;;;483114;246;28560;-74
2023/08/31 01:20:42;;;;;;;7.37;6.57;;;11.80;99.90;;;;;;483118;245;28562;-73
2023/08/31 01:22:44;;;;;;;8.43;7.10;;;11.80;99.90;;;;;;483107;246;28153;-74
2023/08/31 01:24:45;;;;;;;8.73;5.60;;;11.80;99.90;;;;;;483106;246;28523;-73
2023/08/31 01:26:47;;;;;;;10.33;6.70;;;11.80;99.90;;;;;;483110;246;28699;-74
2023/08/31 01:28:47;;;;;;;8.07;6.40;;;11.80;99.90;;;;;;483134;245;28544;-73
2023/08/31 01:30:49;;;;;;;9.53;6.60;;;11.80;99.90;;;;;;483155;246;28177;-74
2023/08/31 01:32:50;;;;;;;7.67;6.20;;;11.80;99.90;;;;;;483155;246;28437;-73
2023/08/31 01:34:51;;;;;;;6.90;6.20;;;11.80;99.90;;;;;;483111;246;28550;-74
2023/08/31 01:36:52;;;;;;;8.13;6.23;;;11.70;99.90;;;;;;483143;246;28553;-74
2023/08/31 01:38:54;;;;;;;7.37;6.07;;;11.70;99.90;;;;;;483137;246;28784;-74
2023/08/31 01:40:56;;;;;;;6.93;6.30;;;11.70;99.90;;;;;;483146;246;28538;-73
2023/08/31 01:42:57;;;;;;;5.53;5.03;;;11.60;99.90;;;;;;483111;246;28235;-74
2023/08/31 01:44:58;;;;;;;7.37;6.40;;;11.60;99.90;;;;;;483113;246;28325;-74
2023/08/31 01:47:00;;;;;;;8.63;5.27;;;11.50;99.90;;;;;;483126;245;28634;-73
2023/08/31 01:49:04;;;;;;;8.10;5.30;;;;;;;;;;483115;246;29008;-74
2023/08/31 01:51:04;;;;;;;7.13;5.00;;;11.40;99.90;;;;;;482919;246;27667;-74
2023/08/31 01:53:06;;;;;;;7.90;6.00;;;11.50;99.90;;;;;;483088;246;28554;-74
2023/08/31 01:55:06;;;;;;;8.80;6.00;;;11.50;99.90;;;;;;483075;246;28200;-75
2023/08/31 01:57:07;;;;;;;5.70;5.20;;;11.50;99.90;;;;;;483212;246;28077;-76
2023/08/31 01:59:09;;;;;;;9.03;5.50;;;11.50;99.90;;;;;;483233;245;28225;-74
2023/08/31 02:01:10;;;;;;;11.07;5.90;;;11.50;99.90;;;;;;483163;246;28497;-75
2023/08/31 02:03:11;;;;;;;8.37;6.30;;;11.40;99.90;;;;;;483154;245;29259;-74
2023/08/31 02:05:12;;;;;;;7.30;5.57;;;11.40;99.90;;;;;;483146;246;28551;-74
2023/08/31 02:07:14;;;;;;;6.93;5.07;;;11.40;99.90;;;;;;483109;246;28641;-73
2023/08/31 02:09:15;;;;;;;6.90;4.53;;;11.40;99.90;;;;;;483152;246;28128;-73
2023/08/31 02:11:16;;;;;;;6.30;5.10;;;11.40;99.90;;;;;;483140;246;28227;-74
2023/08/31 02:13:18;;;;;;;6.30;5.13;;;11.30;99.90;;;;;;483159;246;28554;-75
2023/08/31 02:15:20;;;;;;;8.20;5.43;;;11.30;99.90;;;;;;483135;246;28142;-75
2023/08/31 02:17:21;;;;;;;6.50;4.93;;;11.20;99.90;;;;;;483203;245;28406;-74
2023/08/31 02:19:22;;;;;;;5.73;4.53;;;11.30;99.90;;;;;;483117;246;28427;-74
2023/08/31 02:21:24;;;;;;;5.83;4.70;;;11.20;99.90;;;;;;483085;246;28774;-74
2023/08/31 02:23:26;;;;;;;10.40;6.10;;;11.30;99.90;;;;;;483222;245;28309;-79
2023/08/31 02:25:28;;;;;;;5.30;4.80;;;11.30;99.90;;;;;;483137;246;28790;-75
2023/08/31 02:27:28;;;;;;;5.17;4.67;;;11.30;99.90;;;;;;483133;246;28585;-74
2023/08/31 02:29:31;;;;;;;5.23;4.73;;;;;;;;;;483148;246;28557;-75
2023/08/31 02:31:32;;;;;;;5.30;4.80;;;11.40;99.90;;;;;;483151;246;27018;-75
2023/08/31 02:33:33;;;;;;;6.33;4.30;;;11.40;99.90;;;;;;483248;245;28454;-73
2023/08/31 02:35:36;;;;;;;10.47;4.80;;;;;;;;;;483092;246;28319;-73
2023/08/31 02:37:37;;;;;;;6.80;4.43;;;11.50;99.90;;;;;;483202;245;27679;-73
2023/08/31 02:39:39;;;;;;;4.43;4.03;;;11.50;99.90;;;;;;483103;246;28746;-74
2023/08/31 02:41:40;;;;;;;5.07;4.53;;;11.60;99.90;;;;;;483053;246;28203;-74
2023/08/31 02:43:42;;;;;;;8.93;4.60;;;11.60;99.90;;;;;;483166;245;28217;-75
2023/08/31 02:45:43;;;;;;;4.17;3.73;;;11.60;99.90;;;;;;483103;246;28123;-75
2023/08/31 02:47:44;;;;;;;5.83;4.00;;;11.60;99.90;;;;;;483104;246;28867;-74
2023/08/31 02:49:47;;;;;;;4.10;3.70;;;11.60;99.90;;;;;;483091;245;28571;-74
2023/08/31 02:51:48;;;;;;;5.70;4.50;;;11.70;99.90;;;;;;483032;246;28619;-75
2023/08/31 02:53:48;;;;;;;4.93;3.37;;;11.70;99.90;;;;;;482923;246;28249;-73
2023/08/31 02:55:50;;;;;;;6.63;3.57;;;11.70;99.90;;;;;;483182;245;28459;-75
2023/08/31 02:57:50;;;;;;;7.30;3.83;;;11.70;99.90;;;;;;483101;246;28235;-75
2023/08/31 02:59:52;;;;;;;4.60;3.60;;;11.70;99.90;;;;;;483131;246;28789;-74
2023/08/31 03:01:53;;;;;;;7.67;4.47;;;11.70;99.90;;;;;;483141;246;28840;-74
2023/08/31 03:03:54;;;;;;;7.30;5.00;;;11.70;99.90;;;;;;483144;246;28466;-73
2023/08/31 03:05:56;;;;;;;12.20;5.03;;;11.70;99.90;;;;;;483125;246;28431;-74
2023/08/31 03:07:57;;;;;;;11.50;4.10;;;11.70;99.90;;;;;;483106;246;28559;-73
2023/08/31 03:09:58;;;;;;;5.13;4.30;;;11.70;99.90;;;;;;483196;245;28996;-73
2023/08/31 03:11:59;;;;;;;6.77;3.97;;;11.70;99.90;;;;;;483093;246;28885;-75
2023/08/31 03:14:00;;;;;;;6.73;4.40;;;11.70;99.90;;;;;;483095;246;29046;-74
2023/08/31 03:16:02;;;;;;;5.73;4.13;;;11.70;99.90;;;;;;483053;246;28556;-75
2023/08/31 03:18:03;;;;;;;8.40;5.53;;;11.70;99.90;;;;;;483175;245;29205;-74
2023/08/31 03:20:06;;;;;;;7.47;4.10;;;11.70;99.90;;;;;;483157;246;28661;-74
2023/08/31 03:22:06;;;;;;;5.53;4.20;;;11.70;99.90;;;;;;482986;246;28323;-75
2023/08/31 03:24:07;;;;;;;6.40;4.33;;;11.70;99.90;;;;;;483002;246;28198;-73
2023/08/31 03:26:08;;;;;;;6.93;4.50;;;11.70;99.90;;;;;;483099;246;28239;-74
2023/08/31 03:28:09;;;;;;;9.87;4.63;;;11.70;99.90;;;;;;483132;246;28421;-74
2023/08/31 03:30:11;;;;;;;5.30;4.37;;;11.70;99.90;;;;;;483107;246;28187;-74
2023/08/31 03:32:12;;;;;;;6.10;4.50;;;11.60;99.90;;;;;;483093;246;28995;-74
2023/08/31 03:34:13;;;;;;;6.57;4.30;;;11.60;99.90;;;;;;483143;246;28656;-73
2023/08/31 03:36:14;;;;;;;4.60;3.80;;;11.60;99.90;;;;;;483124;246;27977;-74
2023/08/31 03:38:16;;;;;;;6.30;4.27;;;11.50;99.90;;;;;;483128;246;28312;-76
2023/08/31 03:40:17;;;;;;;4.33;3.93;;;11.50;99.90;;;;;;483083;246;28669;-74
2023/08/31 03:42:18;;;;;;;4.80;3.67;;;11.50;99.90;;;;;;483086;246;28896;-74
2023/08/31 03:44:19;;;;;;;8.97;3.63;;;11.40;99.90;;;;;;483239;245;28244;-73
2023/08/31 03:46:21;;;;;;;4.60;3.90;;;11.40;99.90;;;;;;483090;246;28242;-75
2023/08/31 03:48:22;;;;;;;5.90;3.80;;;11.30;99.90;;;;;;483076;246;28760;-74
2023/08/31 03:50:23;;;;;;;7.00;3.87;;;11.30;99.90;;;;;;483107;246;28443;-74
2023/08/31 03:52:26;;;;;;;8.50;4.43;;;;;;;;;;483133;246;28439;-74
2023/08/31 03:54:27;;;;;;;8.53;5.63;;;11.20;99.90;;;;;;483110;246;27300;-74
2023/08/31 03:56:28;;;;;;;6.90;4.00;;;11.20;99.90;;;;;;483086;246;28188;-74
2023/08/31 03:58:29;;;;;;;5.77;3.63;;;11.20;99.90;;;;;;483095;246;28253;-74
2023/08/31 04:00:31;;;;;;;4.67;3.63;;;11.20;99.90;;;;;;483125;246;28091;-74
2023/08/31 04:02:32;;;;;;;13.77;4.10;;;11.10;99.90;;;;;;483164;246;28112;-74
2023/08/31 04:04:34;;;;;;;8.00;4.80;;;11.10;99.90;;;;;;483167;246;28671;-73
2023/08/31 04:06:35;;;;;;;9.23;4.60;;;11.10;99.90;;;;;;483264;245;28338;-74
2023/08/31 04:08:36;;;;;;;9.67;4.20;;;11.10;99.90;;;;;;483170;246;28331;-73
2023/08/31 04:10:37;;;;;;;5.60;4.70;;;11.10;99.90;;;;;;483196;245;28507;-74
2023/08/31 04:12:39;;;;;;;7.07;4.10;;;11.10;99.90;;;;;;483110;246;28561;-73
2023/08/31 04:14:40;;;;;;;7.77;4.20;;;11.10;99.90;;;;;;483129;246;28199;-74
2023/08/31 04:16:41;;;;;;;7.57;4.70;;;11.10;99.90;;;;;;483114;246;28717;-74
2023/08/31 04:18:42;;;;;;;5.30;4.10;;;11.00;99.90;;;;;;483121;246;28099;-74
2023/08/31 04:20:44;;;;;;;5.80;4.70;;;11.00;99.90;;;;;;483119;246;28219;-73
2023/08/31 04:22:45;;;;;;;8.27;4.40;;;10.90;99.90;;;;;;483113;246;28076;-73
2023/08/31 04:24:46;;;;;;;8.93;5.40;;;10.90;99.90;;;;;;483160;246;28222;-73
2023/08/31 04:26:49;;;;;;;7.33;4.30;;;10.90;99.90;;;;;;483151;246;28309;-74
2023/08/31 04:28:50;;;;;;;5.13;3.80;;;10.90;99.90;;;;;;483063;246;28335;-74
2023/08/31 04:30:51;;;;;;;8.23;4.77;;;10.90;99.90;;;;;;483189;245;28205;-73
2023/08/31 04:32:52;;;;;;;4.97;3.70;;;10.90;99.90;;;;;;483089;246;28071;-73
2023/08/31 04:34:53;;;;;;;5.93;3.93;;;10.80;99.90;;;;;;483144;245;28104;-73
2023/08/31 04:36:55;;;;;;;8.50;4.30;;;10.80;99.90;;;;;;483102;246;28173;-73
2023/08/31 04:38:56;;;;;;;6.23;3.60;;;10.80;99.90;;;;;;483122;246;28240;-73
2023/08/31 04:40:57;;;;;;;7.83;3.83;;;10.80;99.90;;;;;;483160;246;28170;-74
2023/08/31 04:42:59;;;;;;;4.93;4.20;;;10.80;99.90;;;;;;483111;246;28180;-73
2023/08/31 04:45:00;;;;;;;9.67;4.40;;;10.80;99.90;;;;;;483139;246;28508;-75
2023/08/31 04:47:01;;;;;;;6.03;4.20;;;10.80;99.90;;;;;;483181;246;28124;-74
2023/08/31 04:49:03;;;;;;;6.63;4.03;;;10.80;99.90;;;;;;483164;246;28075;-74
2023/08/31 04:51:04;;;;;;;6.57;4.00;;;10.80;99.90;;;;;;483240;245;28068;-74
2023/08/31 04:53:05;;;;;;;5.47;3.93;;;10.80;99.90;;;;;;483107;246;28164;-73
2023/08/31 04:55:12;;;;;;;5.60;4.17;;;10.80;99.90;;;;;;483119;246;28230;-73
2023/08/31 04:57:10;;;;;;;6.17;3.83;;;10.80;99.90;;;;;;482940;246;28053;-75
2023/08/31 04:59:12;;;;;;;6.57;3.97;;;10.70;99.90;;;;;;483114;246;28123;-74
2023/08/31 05:01:14;;;;;;;7.27;4.00;;;10.70;99.90;;;;;;483113;246;28110;-73
2023/08/31 05:03:14;;;;;;;7.07;4.43;;;10.70;99.90;;;;;;483093;246;27998;-73
2023/08/31 05:05:19;;;;;;;4.53;4.03;;;10.70;99.90;;;;;;483088;246;27999;-73
2023/08/31 05:07:20;;;;;;;9.07;5.20;;;10.70;99.90;;;;;;483161;245;28096;-78
2023/08/31 05:09:22;;;;;;;5.00;4.10;;;10.70;99.90;;;;;;483093;246;27932;-73
2023/08/31 05:11:23;;;;;;;5.50;3.67;;;10.70;99.90;;;;;;483099;245;28081;-73
2023/08/31 05:13:24;;;;;;;8.50;4.80;;;10.80;99.90;;;;;;483097;246;28009;-73
2023/08/31 05:15:27;;;;;;;8.60;4.80;;;10.80;99.90;;;;;;483061;246;28093;-74
2023/08/31 05:17:26;;;;;;;5.97;3.57;;;10.80;99.90;;;;;;482997;246;28816;-73
2023/08/31 05:19:28;;;;;;;4.60;3.40;;;10.90;99.90;;;;;;483161;246;28497;-73
2023/08/31 05:21:29;;;;;;;10.43;4.10;;;10.90;99.90;;;;;;483136;246;28416;-74
2023/08/31 05:23:30;;;;;;;4.07;3.20;;;10.80;99.90;;;;;;483165;246;28185;-72
2023/08/31 05:25:32;;;;;;;8.77;4.13;;;10.90;99.90;;;;;;483158;246;28325;-74
2023/08/31 05:27:33;;;;;;;6.77;4.00;;;10.90;99.90;;;;;;483209;245;28199;-75
2023/08/31 05:29:34;;;;;;;6.07;3.80;;;10.90;99.90;;;;;;483159;246;28080;-73
2023/08/31 05:31:36;;;;;;;6.97;3.63;;;10.90;99.90;;;;;;483140;246;28287;-75
2023/08/31 05:33:39;;;;;;;7.47;4.23;;;11.00;99.90;;;;;;483117;246;28068;-74
2023/08/31 05:35:40;;;;;;;7.93;4.30;;;11.00;99.90;;;;;;483098;246;27981;-74
2023/08/31 05:37:41;;;;;;;6.70;3.70;;;11.00;99.90;;;;;;483155;246;28169;-73
2023/08/31 05:39:42;;;;;;;6.93;3.97;;;11.00;99.90;;;;;;483125;246;28224;-73
2023/08/31 05:41:44;;;;;;;5.77;3.97;;;11.10;99.90;;;;;;483171;246;28066;-73
2023/08/31 05:43:45;;;;;;;11.00;4.10;;;11.10;99.90;;;;;;483188;245;28125;-75
2023/08/31 05:45:46;;;;;;;3.87;3.13;;;11.10;99.90;;;;;;483155;245;28453;-74
2023/08/31 05:47:48;;;;;;;8.87;4.10;;;11.10;99.90;;;;;;483188;245;28297;-73
2023/08/31 05:49:49;;;;;;;5.60;3.50;;;11.20;99.90;;;;;;483137;246;28278;-74
2023/08/31 05:51:50;;;;;;;5.33;3.90;;;11.20;99.90;;;;;;483132;245;28221;-74
2023/08/31 05:53:52;;;;;;;4.00;3.37;;;11.20;99.90;;;;;;483104;246;28225;-74
2023/08/31 05:55:53;;;;;;;4.20;3.23;;;11.20;99.90;;;;;;483121;246;28057;-73
2023/08/31 05:57:54;;;;;;;9.40;4.17;;;11.30;99.90;;;;;;483147;245;28212;-73
2023/08/31 05:59:55;;;;;;;6.20;4.00;;;11.30;99.90;;;;;;483408;245;28232;-74
2023/08/31 06:01:57;;;;;;;4.83;3.33;;;11.30;99.90;;;;;;483210;245;28385;-74
2023/08/31 06:03:58;;;;;;;5.37;3.30;;;11.40;99.90;;;;;;483157;246;28222;-74
2023/08/31 06:05:59;;;;;;;8.03;4.03;;;11.40;99.90;;;;;;483169;246;28297;-74
2023/08/31 06:08:01;;;;;;;6.00;3.40;;;11.50;99.90;;;;;;483149;246;28198;-74
2023/08/31 06:10:03;;;;;;;4.93;3.60;;;11.60;99.90;;;;;;483145;246;28219;-73
2023/08/31 06:12:04;;;;;;;3.23;2.93;;;11.60;99.90;;;;;;483172;245;28091;-74
2023/08/31 06:14:05;;;;;;;5.90;3.70;;;11.70;99.90;;;;;;483160;246;28376;-74
2023/08/31 06:16:07;;;;;;;5.40;3.50;;;11.80;99.90;;;;;;483128;246;28751;-74
2023/08/31 06:18:08;;;;;;;8.40;4.00;;;11.80;99.90;;;;;;482754;246;28856;-74
2023/08/31 06:20:09;;;;;;;7.80;3.87;;;11.80;99.90;;;;;;483106;246;28292;-74
2023/08/31 06:22:11;;;;;;;7.40;3.70;;;11.80;99.90;;;;;;483099;246;28378;-73
2023/08/31 06:24:12;;;;;;;5.27;3.40;;;11.80;99.90;;;;;;483098;246;28190;-74
2023/08/31 06:26:13;;;;;;;6.83;3.90;;;11.80;99.90;;;;;;483084;246;28514;-73
2023/08/31 06:28:14;;;;;;;4.07;3.50;;;11.80;99.90;;;;;;483067;246;28057;-75
2023/08/31 06:30:16;;;;;;;7.17;4.43;;;11.80;99.90;;;;;;483099;246;28400;-73
2023/08/31 06:32:18;;;;;;;5.73;3.50;;;11.80;99.90;;;;;;483111;246;28536;-73
2023/08/31 06:34:20;;;;;;;6.60;3.77;;;11.80;99.90;;;;;;483157;246;28551;-74
2023/08/31 06:36:22;;;;;;;4.00;3.43;;;11.90;99.90;;;;;;483152;246;28063;-75
2023/08/31 06:38:23;;;;;;;4.60;3.30;;;11.90;99.90;;;;;;483140;246;28193;-73
2023/08/31 06:40:24;;;;;;;7.50;4.47;;;11.90;99.90;;;;;;483121;246;28892;-73
2023/08/31 06:42:25;;;;;;;5.60;3.33;;;12.00;99.90;;;;;;483098;246;28807;-73
2023/08/31 06:44:27;;;;;;;6.20;3.90;;;12.00;99.90;;;;;;483087;246;28745;-73
2023/08/31 06:46:28;;;;;;;5.43;3.60;;;12.10;99.90;;;;;;483095;246;28076;-73
2023/08/31 06:48:29;;;;;;;6.03;4.63;;;12.10;99.90;;;;;;483113;246;28294;-73
2023/08/31 06:50:30;;;;;;;7.50;5.23;;;12.10;99.90;;;;;;483087;246;28468;-74
2023/08/31 06:52:32;;;;;;;10.20;5.50;;;12.10;99.90;;;;;;483121;246;28090;-73
2023/08/31 06:54:33;;;;;;;6.13;4.80;;;12.10;99.90;;;;;;483152;245;27961;-74
2023/08/31 06:56:34;;;;;;;5.97;3.87;;;12.10;99.90;;;;;;483082;246;28306;-73
2023/08/31 06:58:35;;;;;;;8.03;5.07;;;12.10;99.90;;;;;;483133;246;28855;-74
2023/08/31 07:00:37;;;;;;;14.57;4.60;;;12.10;99.90;;;;;;483124;246;28073;-73
2023/08/31 07:02:39;;;;;;;8.07;4.67;;;12.20;99.90;;;;;;483119;246;28802;-74
2023/08/31 07:04:40;;;;;;;6.17;4.70;;;12.20;99.90;;;;;;483157;245;28555;-73
2023/08/31 07:06:41;;;;;;;9.10;4.77;;;12.20;99.90;;;;;;483080;246;29482;-73
2023/08/31 07:08:45;;;;;;;6.73;4.73;;;12.20;99.90;;;;;;483085;246;28825;-74
2023/08/31 07:10:44;;;;;;;11.50;5.00;;;12.20;99.90;;;;;;482972;246;28535;-73
2023/08/31 07:12:45;;;;;;;7.47;5.10;;;12.30;99.90;;;;;;483053;246;28661;-73
2023/08/31 07:14:46;;;;;;;7.03;4.50;;;12.30;99.90;;;;;;483102;246;28558;-73
2023/08/31 07:16:48;;;;;;;6.80;3.97;;;12.30;99.90;;;;;;483077;246;28071;-73
2023/08/31 07:18:49;;;;;;;9.03;4.27;;;12.30;99.90;;;;;;483094;246;28334;-75
2023/08/31 07:20:50;;;;;;;6.30;4.50;;;12.40;99.90;;;;;;483072;246;28341;-73
2023/08/31 07:22:53;;;;;;;13.33;4.83;;;;;;;;;;483159;245;28156;-73
2023/08/31 07:24:54;;;;;;;7.70;4.23;;;12.50;99.90;;;;;;483127;246;27496;-73
2023/08/31 07:26:55;;;;;;;9.60;4.20;;;12.50;99.90;;;;;;483136;246;28374;-74
2023/08/31 07:28:56;;;;;;;5.17;3.60;;;12.60;99.90;;;;;;483089;246;28445;-73
2023/08/31 07:30:59;;;;;;;10.10;4.00;;;;;;;;;;483093;246;28910;-75
2023/08/31 07:33:03;;;;;;;5.03;4.00;;;12.60;99.90;;;;;;483100;246;26498;-75
2023/08/31 07:35:04;;;;;;;6.10;3.53;;;12.70;99.90;;;;;;482829;246;28375;-74
2023/08/31 07:37:03;;;;;;;8.37;4.17;;;12.80;99.90;;;;;;482964;246;28359;-75
2023/08/31 07:39:04;;;;;;;7.37;3.40;;;12.80;99.90;;;;;;483122;246;28993;-73
2023/08/31 07:41:05;;;;;;;6.50;3.17;;;12.90;99.90;;;;;;483141;246;28823;-75
2023/08/31 07:43:06;;;;;;;5.47;3.40;;;12.90;99.90;;;;;;483133;246;28816;-73
2023/08/31 07:45:08;;;;;;;9.33;3.60;;;12.90;99.90;;;;;;483109;246;28105;-73
2023/08/31 07:47:09;;;;;;;3.60;3.10;;;13.00;99.90;;;;;;483201;246;28194;-73
2023/08/31 07:49:10;;;;;;;6.70;3.47;;;13.00;99.90;;;;;;483236;245;28220;-75
2023/08/31 07:51:12;;;;;;;9.40;4.33;;;13.10;99.90;;;;;;483199;246;28457;-75
2023/08/31 07:53:13;;;;;;;6.80;3.00;;;13.10;99.90;;;;;;483079;246;28372;-74
2023/08/31 07:55:14;;;;;;;5.97;3.17;;;13.10;99.90;;;;;;483116;246;28756;-73
2023/08/31 07:57:15;;;;;;;4.70;3.00;;;13.10;99.90;;;;;;483124;246;28823;-73
2023/08/31 07:59:17;;;;;;;9.70;3.10;;;13.20;99.90;;;;;;483185;246;28707;-73
2023/08/31 08:01:18;;;;;;;7.13;3.00;;;13.20;99.90;;;;;;483135;246;28242;-74
2023/08/31 08:03:19;;;;;;;8.13;2.80;;;13.30;99.90;;;;;;483178;246;28213;-73
2023/08/31 08:05:20;;;;;;;9.47;3.00;;;13.30;99.90;;;;;;483151;246;28448;-74
2023/08/31 08:07:21;;;;;;;6.00;3.50;;;13.40;99.90;;;;;;483161;246;28242;-73
2023/08/31 08:09:23;;;;;;;5.63;3.00;;;13.40;99.90;;;;;;483165;246;28426;-73
2023/08/31 08:11:24;;;;;;;6.93;3.10;;;13.40;99.90;;;;;;483168;246;28718;-73
2023/08/31 08:13:25;;;;;;;5.40;2.50;;;13.50;99.90;;;;;;482988;246;28696;-73
2023/08/31 08:15:26;;;;;;;10.47;3.13;;;13.50;99.90;;;;;;483134;246;28842;-75
2023/08/31 08:17:28;;;;;;;7.70;3.07;;;13.50;99.90;;;;;;483128;246;28438;-73
2023/08/31 08:19:30;;;;;;;5.93;3.00;;;13.50;99.90;;;;;;483129;246;28213;-78
2023/08/31 08:21:31;;;;;;;6.70;3.20;;;13.60;99.90;;;;;;483153;245;28196;-74
2023/08/31 08:23:32;;;;;;;3.47;2.93;;;13.60;99.90;;;;;;483140;246;28381;-74
2023/08/31 08:25:35;;;;;;;6.23;3.00;;;;;;;;;;483127;246;28692;-79
2023/08/31 08:27:36;;;;;;;5.70;3.13;;;13.70;99.90;;;;;;483146;246;26637;-75
2023/08/31 08:29:37;;;;;;;5.80;3.20;;;13.80;99.90;;;;;;483137;246;28311;-74
2023/08/31 08:31:40;;;;;;;7.63;3.20;;;13.80;99.90;;;;;;483138;246;28199;-73
2023/08/31 08:33:41;;;;;;;3.83;2.83;;;13.80;99.90;;;;;;483142;245;28329;-73
2023/08/31 08:35:42;;;;;;;8.23;3.47;;;13.90;99.90;;;;;;483138;246;28347;-75
2023/08/31 08:37:43;;;;;;;5.07;2.93;;;14.00;99.90;;;;;;483166;245;28778;-73
2023/08/31 08:39:46;;;;;;;4.60;2.90;;;14.00;99.90;;;;;;483139;246;29409;-73
2023/08/31 08:41:47;;;;;;;4.83;2.30;;;14.00;99.90;;;;;;483128;246;28579;-75
2023/08/31 08:43:48;;;;;;;4.67;2.50;;;14.10;99.90;;;;;;483168;246;28539;-73
2023/08/31 08:45:49;;;;;;;3.80;2.70;;;14.00;99.90;;;;;;483156;246;28749;-75
2023/08/31 08:47:51;;;;;;;4.77;2.60;;;14.10;99.90;;;;;;483183;245;28760;-73
2023/08/31 08:49:52;;;;;;;4.13;2.30;;;14.10;99.90;;;;;;483131;246;28771;-75
2023/08/31 08:51:53;;;;;;;4.93;2.53;;;14.20;99.90;;;;;;483092;246;28525;-72
2023/08/31 08:53:54;;;;;;;5.63;2.57;;;14.30;99.90;;;;;;483101;246;28608;-75
2023/08/31 08:55:56;;;;;;;12.93;2.73;;;14.60;99.90;;;;;;483116;246;28544;-75
2023/08/31 08:57:57;;;;;;;4.27;2.37;;;14.70;99.90;;;;;;483212;245;28947;-75
2023/08/31 08:59:58;;;;;;;6.10;2.57;;;14.80;99.90;;;;;;483110;246;28545;-75
2023/08/31 09:01:59;;;;;;;4.27;2.20;;;14.90;99.90;;;;;;483128;246;29319;-75
2023/08/31 09:04:01;;;;;;;6.17;2.60;;;14.90;99.90;;;;;;483100;246;28892;-75
2023/08/31 09:06:04;;;;;;;5.07;2.27;;;14.90;99.90;;;;;;483083;246;29344;-77
2023/08/31 09:08:03;;;;;;;2.97;2.10;;;14.90;99.90;;;;;;483002;246;28866;-75
2023/08/31 09:10:04;;;;;;;5.40;2.40;;;14.90;99.90;;;;;;483209;245;28875;-73
2023/08/31 09:12:06;;;;;;;5.43;2.33;;;14.90;99.90;;;;;;483109;245;28947;-75
2023/08/31 09:14:07;;;;;;;5.50;2.60;;;15.00;99.90;;;;;;483107;246;28899;-72
2023/08/31 09:16:08;;;;;;;5.10;2.10;;;15.00;99.90;;;;;;483111;246;29305;-73
2023/08/31 09:18:09;;;;;;;4.57;2.20;;;15.10;99.90;;;;;;483124;246;29292;-75
2023/08/31 09:20:11;;;;;;;4.73;2.90;;;15.10;99.90;;;;;;483104;246;29304;-73
2023/08/31 09:22:12;;;;;;;7.03;2.57;;;15.20;99.90;;;;;;483126;246;28851;-73
2023/08/31 09:24:18;;;;;;;3.27;2.33;;;15.20;99.90;;;;;;483116;246;28970;-72
2023/08/31 09:26:18;;;;;;;10.10;2.40;;;15.30;99.90;;;;;;483040;246;28925;-73
2023/08/31 09:28:19;;;;;;;4.27;1.97;;;15.30;99.90;;;;;;483101;246;29340;-74
2023/08/31 09:30:20;;;;;;;4.73;2.20;;;15.30;99.90;;;;;;483080;246;29328;-75
2023/08/31 09:32:21;;;;;;;4.90;2.10;;;15.20;99.90;;;;;;483097;246;29346;-75
2023/08/31 09:34:23;;;;;;;5.93;2.60;;;15.30;99.90;;;;;;483090;246;29420;-75
2023/08/31 09:36:24;;;;;;;8.60;2.53;;;15.40;99.90;;;;;;483163;245;29047;-75
2023/08/31 09:38:26;;;;;;;3.60;2.10;;;15.50;99.90;;;;;;483102;246;28849;-73
2023/08/31 09:40:27;;;;;;;4.13;2.43;;;15.60;99.90;;;;;;482670;246;28843;-75
2023/08/31 09:42:28;;;;;;;7.60;2.70;;;15.70;99.90;;;;;;483184;245;28847;-74
2023/08/31 09:44:29;;;;;;;5.07;2.90;;;15.80;99.90;;;;;;483121;246;29283;-75
2023/08/31 09:46:31;;;;;;;5.70;2.50;;;15.80;99.90;;;;;;483099;246;29387;-75
2023/08/31 09:48:32;;;;;;;5.47;2.20;;;15.70;99.90;;;;;;483110;246;28937;-75
2023/08/31 09:50:34;;;;;;;9.30;2.70;;;15.70;99.90;;;;;;483092;246;29354;-75
2023/08/31 09:52:35;;;;;;;6.10;2.40;;;15.60;99.90;;;;;;483059;246;29320;-75
2023/08/31 09:54:36;;;;;;;3.23;2.10;;;15.60;99.90;;;;;;483124;246;29397;-73
2023/08/31 09:56:37;;;;;;;4.80;2.30;;;15.80;99.90;;;;;;483102;246;29330;-75
2023/08/31 09:58:38;;;;;;;4.33;2.20;;;15.90;99.90;;;;;;483093;246;28958;-76
2023/08/31 10:00:40;;;;;;;7.53;2.83;;;15.90;99.90;;;;;;483092;246;28847;-76
2023/08/31 10:02:42;;;;;;;4.57;2.37;;;16.00;99.90;;;;;;483103;246;28868;-76
2023/08/31 10:04:43;;;;;;;5.90;2.23;;;16.20;99.90;;;;;;483071;246;28983;-74
2023/08/31 10:06:44;;;;;;;4.33;2.30;;;16.40;99.90;;;;;;483118;246;28859;-77
2023/08/31 10:08:46;;;;;;;5.93;2.23;;;16.50;99.90;;;;;;483114;246;28871;-75
2023/08/31 10:10:47;;;;;;;3.80;2.20;;;16.70;99.90;;;;;;483057;246;29343;-75
2023/08/31 10:12:48;;;;;;;3.83;2.40;;;16.80;99.90;;;;;;483109;246;29312;-76
2023/08/31 10:14:52;;;;;;;8.10;2.93;;;16.90;99.90;;;;;;483123;245;29409;-75
2023/08/31 10:16:52;;;;;;;5.30;3.23;;;16.90;99.90;;;;;;482967;246;28844;-75
2023/08/31 10:18:53;;;;;;;3.93;2.10;;;16.80;99.90;;;;;;483153;245;28882;-75
2023/08/31 10:20:54;;;;;;;5.60;2.30;;;17.00;99.90;;;;;;483086;246;29322;-74
2023/08/31 10:22:57;;;;;;;7.03;2.60;;;17.30;99.90;;;;;;483103;246;29295;-75
2023/08/31 10:24:57;;;;;;;7.10;2.67;;;17.50;99.90;;;;;;482986;246;29421;-75
2023/08/31 10:26:58;;;;;;;5.60;2.63;;;17.60;99.90;;;;;;483096;246;28862;-75
2023/08/31 10:28:59;;;;;;;6.77;2.33;;;17.40;99.90;;;;;;483105;246;28861;-74
2023/08/31 10:31:03;;;;;;;5.70;2.87;;;17.20;99.90;;;;;;483095;246;29328;-77
2023/08/31 10:33:03;;;;;;;6.60;3.00;;;17.10;99.90;;;;;;482982;246;29334;-75
2023/08/31 10:35:04;;;;;;;6.40;3.07;;;17.10;99.90;;;;;;483207;245;28862;-76